sensor_id;sensor_type;location;lat;lon;timestamp;P1;durP1;ratioP1;P2;durP2;ratioP2
38208;SDS011;24016;52.102;11.584;2023-04-08T00:00:02;27.63;;;15.10;;
38208;SDS011;24016;52.102;11.584;2023-04-08T00:02:28;29.67;;;16.10;;
38208;SDS011;24016;52.102;11.584;2023-04-08T00:04:54;28.88;;;16.10;;
38208;SDS011;24016;52.102;11.584;2023-04-08T00:07:19;27.52;;;15.88;;
38208;SDS011;24016;52.102;11.584;2023-04-08T00:09:45;30.83;;;15.90;;
38208;SDS011;24016;52.102;11.584;2023-04-08T00:12:10;29.85;;;16.15;;
38208;SDS011;24016;52.102;11.584;2023-04-08T00:14:36;27.50;;;15.57;;
38208;SDS011;24016;52.102;11.584;2023-04-08T00:17:02;35.50;;;16.77;;
38208;SDS011;24016;52.102;11.584;2023-04-08T00:19:28;29.10;;;16.13;;
38208;SDS011;24016;52.102;11.584;2023-04-08T00:21:53;26.52;;;15.63;;
38208;SDS011;24016;52.102;11.584;2023-04-08T00:24:19;31.48;;;16.50;;
38208;SDS011;24016;52.102;11.584;2023-04-08T00:26:44;30.42;;;16.42;;
38208;SDS011;24016;52.102;11.584;2023-04-08T00:29:10;30.95;;;17.10;;
38208;SDS011;24016;52.102;11.584;2023-04-08T00:31:35;33.80;;;16.40;;
38208;SDS011;24016;52.102;11.584;2023-04-08T00:34:01;32.28;;;17.08;;
38208;SDS011;24016;52.102;11.584;2023-04-08T00:36:26;32.20;;;17.05;;
38208;SDS011;24016;52.102;11.584;2023-04-08T00:38:52;36.58;;;17.45;;
38208;SDS011;24016;52.102;11.584;2023-04-08T00:41:17;37.20;;;18.35;;
38208;SDS011;24016;52.102;11.584;2023-04-08T00:43:43;28.27;;;16.42;;
38208;SDS011;24016;52.102;11.584;2023-04-08T00:46:09;34.47;;;18.40;;
38208;SDS011;24016;52.102;11.584;2023-04-08T00:48:35;34.58;;;17.30;;
38208;SDS011;24016;52.102;11.584;2023-04-08T00:51:00;35.97;;;17.65;;
38208;SDS011;24016;52.102;11.584;2023-04-08T00:53:26;29.58;;;17.20;;
38208;SDS011;24016;52.102;11.584;2023-04-08T00:55:54;38.05;;;17.10;;
38208;SDS011;24016;52.102;11.584;2023-04-08T00:58:20;32.35;;;17.27;;
38208;SDS011;24016;52.102;11.584;2023-04-08T01:00:48;32.38;;;16.60;;
38208;SDS011;24016;52.102;11.584;2023-04-08T01:03:24;36.90;;;17.73;;
38208;SDS011;24016;52.102;11.584;2023-04-08T01:06:07;39.42;;;17.27;;
38208;SDS011;24016;52.102;11.584;2023-04-08T01:08:56;31.10;;;16.60;;
38208;SDS011;24016;52.102;11.584;2023-04-08T01:11:24;29.90;;;16.20;;
38208;SDS011;24016;52.102;11.584;2023-04-08T01:13:51;39.40;;;18.17;;
38208;SDS011;24016;52.102;11.584;2023-04-08T01:16:20;34.42;;;17.10;;
38208;SDS011;24016;52.102;11.584;2023-04-08T01:18:48;36.70;;;17.83;;
38208;SDS011;24016;52.102;11.584;2023-04-08T01:21:15;31.17;;;16.48;;
38208;SDS011;24016;52.102;11.584;2023-04-08T01:24:05;34.03;;;16.95;;
38208;SDS011;24016;52.102;11.584;2023-04-08T01:26:47;34.28;;;17.45;;
38208;SDS011;24016;52.102;11.584;2023-04-08T01:29:14;43.53;;;18.65;;
38208;SDS011;24016;52.102;11.584;2023-04-08T01:31:40;36.58;;;18.42;;
38208;SDS011;24016;52.102;11.584;2023-04-08T01:34:07;41.13;;;17.85;;
38208;SDS011;24016;52.102;11.584;2023-04-08T01:36:35;48.17;;;18.85;;
38208;SDS011;24016;52.102;11.584;2023-04-08T01:39:04;38.05;;;18.02;;
38208;SDS011;24016;52.102;11.584;2023-04-08T01:41:30;37.53;;;18.50;;
38208;SDS011;24016;52.102;11.584;2023-04-08T01:44:01;45.80;;;18.83;;
38208;SDS011;24016;52.102;11.584;2023-04-08T01:46:28;41.83;;;18.20;;
38208;SDS011;24016;52.102;11.584;2023-04-08T01:48:55;44.78;;;18.17;;
38208;SDS011;24016;52.102;11.584;2023-04-08T01:51:24;40.78;;;19.73;;
38208;SDS011;24016;52.102;11.584;2023-04-08T01:53:51;48.67;;;19.75;;
38208;SDS011;24016;52.102;11.584;2023-04-08T01:56:19;43.22;;;20.23;;
38208;SDS011;24016;52.102;11.584;2023-04-08T01:58:50;45.03;;;18.90;;
38208;SDS011;24016;52.102;11.584;2023-04-08T02:01:19;46.30;;;20.08;;
38208;SDS011;24016;52.102;11.584;2023-04-08T02:03:47;55.70;;;20.75;;
38208;SDS011;24016;52.102;11.584;2023-04-08T02:06:17;44.25;;;19.08;;
38208;SDS011;24016;52.102;11.584;2023-04-08T02:08:43;64.30;;;21.67;;
38208;SDS011;24016;52.102;11.584;2023-04-08T02:11:08;56.78;;;21.48;;
38208;SDS011;24016;52.102;11.584;2023-04-08T02:13:37;57.55;;;21.40;;
38208;SDS011;24016;52.102;11.584;2023-04-08T02:16:03;53.22;;;21.20;;
38208;SDS011;24016;52.102;11.584;2023-04-08T02:18:37;56.58;;;22.60;;
38208;SDS011;24016;52.102;11.584;2023-04-08T02:23:37;51.72;;;21.55;;
38208;SDS011;24016;52.102;11.584;2023-04-08T02:26:11;54.55;;;22.88;;
38208;SDS011;24016;52.102;11.584;2023-04-08T02:28:38;56.33;;;22.13;;
38208;SDS011;24016;52.102;11.584;2023-04-08T02:31:10;58.15;;;22.10;;
38208;SDS011;24016;52.102;11.584;2023-04-08T02:33:42;53.13;;;21.30;;
38208;SDS011;24016;52.102;11.584;2023-04-08T02:36:10;59.25;;;22.27;;
38208;SDS011;24016;52.102;11.584;2023-04-08T02:38:37;49.45;;;20.88;;
38208;SDS011;24016;52.102;11.584;2023-04-08T02:41:12;53.10;;;22.15;;
38208;SDS011;24016;52.102;11.584;2023-04-08T02:43:42;50.60;;;20.73;;
38208;SDS011;24016;52.102;11.584;2023-04-08T02:46:07;55.42;;;21.70;;
38208;SDS011;24016;52.102;11.584;2023-04-08T02:48:34;54.97;;;23.08;;
38208;SDS011;24016;52.102;11.584;2023-04-08T02:51:00;52.47;;;22.60;;
38208;SDS011;24016;52.102;11.584;2023-04-08T02:53:25;58.78;;;22.58;;
38208;SDS011;24016;52.102;11.584;2023-04-08T02:55:51;55.45;;;22.20;;
38208;SDS011;24016;52.102;11.584;2023-04-08T02:58:17;49.08;;;22.08;;
38208;SDS011;24016;52.102;11.584;2023-04-08T03:00:42;44.65;;;20.70;;
38208;SDS011;24016;52.102;11.584;2023-04-08T03:03:09;50.05;;;21.25;;
38208;SDS011;24016;52.102;11.584;2023-04-08T03:05:35;52.22;;;21.65;;
38208;SDS011;24016;52.102;11.584;2023-04-08T03:08:00;42.13;;;20.95;;
38208;SDS011;24016;52.102;11.584;2023-04-08T03:10:26;45.22;;;21.17;;
38208;SDS011;24016;52.102;11.584;2023-04-08T03:12:51;49.72;;;21.75;;
38208;SDS011;24016;52.102;11.584;2023-04-08T03:15:17;51.17;;;22.58;;
38208;SDS011;24016;52.102;11.584;2023-04-08T03:17:42;52.15;;;21.80;;
38208;SDS011;24016;52.102;11.584;2023-04-08T03:20:08;50.28;;;22.35;;
38208;SDS011;24016;52.102;11.584;2023-04-08T03:22:34;56.65;;;22.60;;
38208;SDS011;24016;52.102;11.584;2023-04-08T03:25:01;57.90;;;22.52;;
38208;SDS011;24016;52.102;11.584;2023-04-08T03:27:26;47.35;;;21.17;;
38208;SDS011;24016;52.102;11.584;2023-04-08T03:29:52;48.92;;;21.27;;
38208;SDS011;24016;52.102;11.584;2023-04-08T03:32:18;48.05;;;20.17;;
38208;SDS011;24016;52.102;11.584;2023-04-08T03:34:43;53.85;;;22.23;;
38208;SDS011;24016;52.102;11.584;2023-04-08T03:37:09;44.47;;;19.73;;
38208;SDS011;24016;52.102;11.584;2023-04-08T03:39:34;47.08;;;20.85;;
38208;SDS011;24016;52.102;11.584;2023-04-08T03:42:00;48.70;;;20.48;;
38208;SDS011;24016;52.102;11.584;2023-04-08T03:44:27;43.75;;;19.85;;
38208;SDS011;24016;52.102;11.584;2023-04-08T03:46:52;47.15;;;20.65;;
38208;SDS011;24016;52.102;11.584;2023-04-08T03:49:18;55.05;;;21.05;;
38208;SDS011;24016;52.102;11.584;2023-04-08T03:51:43;39.92;;;19.95;;
38208;SDS011;24016;52.102;11.584;2023-04-08T03:54:09;43.13;;;20.20;;
38208;SDS011;24016;52.102;11.584;2023-04-08T03:56:34;44.08;;;22.25;;
38208;SDS011;24016;52.102;11.584;2023-04-08T03:59:00;41.70;;;20.00;;
38208;SDS011;24016;52.102;11.584;2023-04-08T04:01:26;46.75;;;21.20;;
38208;SDS011;24016;52.102;11.584;2023-04-08T04:03:51;52.75;;;21.85;;
38208;SDS011;24016;52.102;11.584;2023-04-08T04:06:16;41.83;;;21.98;;
38208;SDS011;24016;52.102;11.584;2023-04-08T04:08:42;46.22;;;22.13;;
38208;SDS011;24016;52.102;11.584;2023-04-08T04:11:08;53.55;;;23.58;;
38208;SDS011;24016;52.102;11.584;2023-04-08T04:13:33;60.92;;;23.23;;
38208;SDS011;24016;52.102;11.584;2023-04-08T04:15:59;50.67;;;23.52;;
38208;SDS011;24016;52.102;11.584;2023-04-08T04:18:24;49.92;;;23.35;;
38208;SDS011;24016;52.102;11.584;2023-04-08T04:20:50;53.05;;;24.25;;
38208;SDS011;24016;52.102;11.584;2023-04-08T04:23:15;58.22;;;24.25;;
38208;SDS011;24016;52.102;11.584;2023-04-08T04:25:41;51.55;;;24.40;;
38208;SDS011;24016;52.102;11.584;2023-04-08T04:28:07;51.58;;;23.95;;
38208;SDS011;24016;52.102;11.584;2023-04-08T04:30:35;55.95;;;26.20;;
38208;SDS011;24016;52.102;11.584;2023-04-08T04:33:02;49.25;;;24.17;;
38208;SDS011;24016;52.102;11.584;2023-04-08T04:35:28;42.60;;;24.17;;
38208;SDS011;24016;52.102;11.584;2023-04-08T04:37:53;58.80;;;25.55;;
38208;SDS011;24016;52.102;11.584;2023-04-08T04:40:19;64.75;;;26.33;;
38208;SDS011;24016;52.102;11.584;2023-04-08T04:42:44;58.17;;;25.38;;
38208;SDS011;24016;52.102;11.584;2023-04-08T04:45:10;55.85;;;26.00;;
38208;SDS011;24016;52.102;11.584;2023-04-08T04:47:36;73.15;;;28.90;;
38208;SDS011;24016;52.102;11.584;2023-04-08T04:50:02;57.65;;;26.55;;
38208;SDS011;24016;52.102;11.584;2023-04-08T04:52:27;60.13;;;26.92;;
38208;SDS011;24016;52.102;11.584;2023-04-08T04:54:53;58.67;;;26.98;;
38208;SDS011;24016;52.102;11.584;2023-04-08T04:57:18;74.88;;;30.13;;
38208;SDS011;24016;52.102;11.584;2023-04-08T04:59:44;59.75;;;28.00;;
38208;SDS011;24016;52.102;11.584;2023-04-08T05:02:09;56.90;;;28.70;;
38208;SDS011;24016;52.102;11.584;2023-04-08T05:04:35;80.20;;;31.63;;
38208;SDS011;24016;52.102;11.584;2023-04-08T05:07:00;75.35;;;30.13;;
38208;SDS011;24016;52.102;11.584;2023-04-08T05:09:26;85.25;;;34.03;;
38208;SDS011;24016;52.102;11.584;2023-04-08T05:11:53;77.68;;;31.52;;
38208;SDS011;24016;52.102;11.584;2023-04-08T05:14:18;77.63;;;32.53;;
38208;SDS011;24016;52.102;11.584;2023-04-08T05:16:44;74.97;;;31.65;;
38208;SDS011;24016;52.102;11.584;2023-04-08T05:19:10;95.63;;;32.72;;
38208;SDS011;24016;52.102;11.584;2023-04-08T05:21:35;93.47;;;33.58;;
38208;SDS011;24016;52.102;11.584;2023-04-08T05:24:01;86.43;;;33.17;;
38208;SDS011;24016;52.102;11.584;2023-04-08T05:26:26;83.65;;;32.22;;
38208;SDS011;24016;52.102;11.584;2023-04-08T05:28:52;87.63;;;31.70;;
38208;SDS011;24016;52.102;11.584;2023-04-08T05:31:18;90.45;;;32.28;;
38208;SDS011;24016;52.102;11.584;2023-04-08T05:33:44;83.95;;;31.60;;
38208;SDS011;24016;52.102;11.584;2023-04-08T05:36:10;77.55;;;30.60;;
38208;SDS011;24016;52.102;11.584;2023-04-08T05:38:36;88.65;;;34.75;;
38208;SDS011;24016;52.102;11.584;2023-04-08T05:41:02;92.72;;;34.88;;
38208;SDS011;24016;52.102;11.584;2023-04-08T05:43:28;92.72;;;33.55;;
38208;SDS011;24016;52.102;11.584;2023-04-08T05:45:54;97.03;;;34.08;;
38208;SDS011;24016;52.102;11.584;2023-04-08T05:48:20;88.47;;;33.22;;
38208;SDS011;24016;52.102;11.584;2023-04-08T05:50:45;95.78;;;33.88;;
38208;SDS011;24016;52.102;11.584;2023-04-08T05:53:12;93.68;;;34.35;;
38208;SDS011;24016;52.102;11.584;2023-04-08T05:55:38;114.85;;;36.53;;
38208;SDS011;24016;52.102;11.584;2023-04-08T05:58:04;96.88;;;34.53;;
38208;SDS011;24016;52.102;11.584;2023-04-08T06:00:29;97.35;;;35.20;;
38208;SDS011;24016;52.102;11.584;2023-04-08T06:02:55;97.90;;;34.92;;
38208;SDS011;24016;52.102;11.584;2023-04-08T06:05:20;100.05;;;34.03;;
38208;SDS011;24016;52.102;11.584;2023-04-08T06:07:46;83.18;;;33.63;;
38208;SDS011;24016;52.102;11.584;2023-04-08T06:10:12;89.53;;;33.55;;
38208;SDS011;24016;52.102;11.584;2023-04-08T06:12:37;89.45;;;33.28;;
38208;SDS011;24016;52.102;11.584;2023-04-08T06:15:04;87.15;;;32.65;;
38208;SDS011;24016;52.102;11.584;2023-04-08T06:17:30;74.85;;;31.80;;
38208;SDS011;24016;52.102;11.584;2023-04-08T06:19:56;92.60;;;32.60;;
38208;SDS011;24016;52.102;11.584;2023-04-08T06:22:21;79.00;;;31.17;;
38208;SDS011;24016;52.102;11.584;2023-04-08T06:24:47;79.47;;;30.30;;
38208;SDS011;24016;52.102;11.584;2023-04-08T06:27:14;68.75;;;27.38;;
38208;SDS011;24016;52.102;11.584;2023-04-08T06:29:40;71.10;;;29.20;;
38208;SDS011;24016;52.102;11.584;2023-04-08T06:32:06;70.55;;;27.98;;
38208;SDS011;24016;52.102;11.584;2023-04-08T06:34:31;81.03;;;29.48;;
38208;SDS011;24016;52.102;11.584;2023-04-08T06:36:57;76.82;;;30.42;;
38208;SDS011;24016;52.102;11.584;2023-04-08T06:39:23;73.35;;;29.00;;
38208;SDS011;24016;52.102;11.584;2023-04-08T06:41:48;62.25;;;26.58;;
38208;SDS011;24016;52.102;11.584;2023-04-08T06:44:14;59.95;;;24.73;;
38208;SDS011;24016;52.102;11.584;2023-04-08T06:46:40;65.85;;;26.90;;
38208;SDS011;24016;52.102;11.584;2023-04-08T06:49:05;63.17;;;26.33;;
38208;SDS011;24016;52.102;11.584;2023-04-08T06:51:31;57.53;;;25.00;;
38208;SDS011;24016;52.102;11.584;2023-04-08T06:53:57;65.80;;;26.30;;
38208;SDS011;24016;52.102;11.584;2023-04-08T06:56:23;66.88;;;26.33;;
38208;SDS011;24016;52.102;11.584;2023-04-08T06:58:50;72.18;;;27.35;;
38208;SDS011;24016;52.102;11.584;2023-04-08T07:01:16;79.30;;;27.58;;
38208;SDS011;24016;52.102;11.584;2023-04-08T07:03:41;63.17;;;25.58;;
38208;SDS011;24016;52.102;11.584;2023-04-08T07:06:07;58.10;;;25.40;;
38208;SDS011;24016;52.102;11.584;2023-04-08T07:08:32;68.88;;;26.20;;
38208;SDS011;24016;52.102;11.584;2023-04-08T07:10:58;59.83;;;25.52;;
38208;SDS011;24016;52.102;11.584;2023-04-08T07:13:23;56.28;;;24.85;;
38208;SDS011;24016;52.102;11.584;2023-04-08T07:15:49;73.13;;;25.08;;
38208;SDS011;24016;52.102;11.584;2023-04-08T07:18:15;59.45;;;23.65;;
38208;SDS011;24016;52.102;11.584;2023-04-08T07:20:41;55.38;;;24.27;;
38208;SDS011;24016;52.102;11.584;2023-04-08T07:23:06;49.20;;;22.77;;
38208;SDS011;24016;52.102;11.584;2023-04-08T07:25:32;50.83;;;22.30;;
38208;SDS011;24016;52.102;11.584;2023-04-08T07:28:01;54.83;;;23.45;;
38208;SDS011;24016;52.102;11.584;2023-04-08T07:30:27;56.05;;;23.05;;
38208;SDS011;24016;52.102;11.584;2023-04-08T07:32:52;49.90;;;21.38;;
38208;SDS011;24016;52.102;11.584;2023-04-08T07:35:19;42.83;;;20.17;;
38208;SDS011;24016;52.102;11.584;2023-04-08T07:37:48;52.00;;;20.77;;
38208;SDS011;24016;52.102;11.584;2023-04-08T07:40:15;33.58;;;18.23;;
38208;SDS011;24016;52.102;11.584;2023-04-08T07:42:42;41.30;;;18.77;;
38208;SDS011;24016;52.102;11.584;2023-04-08T07:45:08;41.03;;;18.40;;
38208;SDS011;24016;52.102;11.584;2023-04-08T07:47:34;34.10;;;17.70;;
38208;SDS011;24016;52.102;11.584;2023-04-08T07:50:00;32.70;;;16.55;;
38208;SDS011;24016;52.102;11.584;2023-04-08T07:52:26;40.28;;;17.63;;
38208;SDS011;24016;52.102;11.584;2023-04-08T07:54:53;33.55;;;17.90;;
38208;SDS011;24016;52.102;11.584;2023-04-08T07:57:19;31.63;;;17.70;;
38208;SDS011;24016;52.102;11.584;2023-04-08T07:59:45;35.20;;;17.65;;
38208;SDS011;24016;52.102;11.584;2023-04-08T08:02:11;38.67;;;18.50;;
38208;SDS011;24016;52.102;11.584;2023-04-08T08:04:36;35.78;;;17.85;;
38208;SDS011;24016;52.102;11.584;2023-04-08T08:07:02;46.75;;;20.20;;
38208;SDS011;24016;52.102;11.584;2023-04-08T08:09:28;35.65;;;19.52;;
38208;SDS011;24016;52.102;11.584;2023-04-08T08:11:53;41.35;;;19.88;;
38208;SDS011;24016;52.102;11.584;2023-04-08T08:14:19;42.33;;;20.52;;
38208;SDS011;24016;52.102;11.584;2023-04-08T08:16:45;42.63;;;19.95;;
38208;SDS011;24016;52.102;11.584;2023-04-08T08:19:12;36.38;;;18.75;;
38208;SDS011;24016;52.102;11.584;2023-04-08T08:21:38;42.35;;;20.33;;
38208;SDS011;24016;52.102;11.584;2023-04-08T08:24:04;37.25;;;19.52;;
38208;SDS011;24016;52.102;11.584;2023-04-08T08:26:30;41.78;;;20.15;;
38208;SDS011;24016;52.102;11.584;2023-04-08T08:28:56;48.25;;;22.95;;
38208;SDS011;24016;52.102;11.584;2023-04-08T08:31:21;38.00;;;20.23;;
38208;SDS011;24016;52.102;11.584;2023-04-08T08:33:47;39.47;;;19.95;;
38208;SDS011;24016;52.102;11.584;2023-04-08T08:36:12;41.42;;;21.48;;
38208;SDS011;24016;52.102;11.584;2023-04-08T08:38:38;41.80;;;20.95;;
38208;SDS011;24016;52.102;11.584;2023-04-08T08:41:03;43.22;;;22.50;;
38208;SDS011;24016;52.102;11.584;2023-04-08T08:43:29;44.97;;;21.33;;
38208;SDS011;24016;52.102;11.584;2023-04-08T08:45:58;45.50;;;21.42;;
38208;SDS011;24016;52.102;11.584;2023-04-08T08:48:24;43.97;;;22.88;;
38208;SDS011;24016;52.102;11.584;2023-04-08T08:50:50;44.03;;;24.10;;
38208;SDS011;24016;52.102;11.584;2023-04-08T08:53:15;45.58;;;22.95;;
38208;SDS011;24016;52.102;11.584;2023-04-08T08:55:41;48.80;;;24.60;;
38208;SDS011;24016;52.102;11.584;2023-04-08T08:58:07;39.70;;;23.13;;
38208;SDS011;24016;52.102;11.584;2023-04-08T09:00:33;41.38;;;25.08;;
38208;SDS011;24016;52.102;11.584;2023-04-08T09:03:25;48.22;;;25.05;;
38208;SDS011;24016;52.102;11.584;2023-04-08T09:05:55;36.10;;;19.85;;
38208;SDS011;24016;52.102;11.584;2023-04-08T09:08:27;35.15;;;20.00;;
38208;SDS011;24016;52.102;11.584;2023-04-08T09:11:08;41.53;;;21.17;;
38208;SDS011;24016;52.102;11.584;2023-04-08T09:13:38;33.85;;;21.15;;
38208;SDS011;24016;52.102;11.584;2023-04-08T09:16:06;30.17;;;18.90;;
38208;SDS011;24016;52.102;11.584;2023-04-08T09:18:33;35.72;;;19.60;;
38208;SDS011;24016;52.102;11.584;2023-04-08T09:21:03;32.97;;;20.00;;
38208;SDS011;24016;52.102;11.584;2023-04-08T09:23:36;36.63;;;21.88;;
38208;SDS011;24016;52.102;11.584;2023-04-08T09:26:23;37.53;;;20.67;;
38208;SDS011;24016;52.102;11.584;2023-04-08T09:29:08;33.75;;;20.33;;
38208;SDS011;24016;52.102;11.584;2023-04-08T09:31:34;34.20;;;20.67;;
38208;SDS011;24016;52.102;11.584;2023-04-08T09:34:15;37.00;;;20.05;;
38208;SDS011;24016;52.102;11.584;2023-04-08T09:36:41;36.95;;;20.83;;
38208;SDS011;24016;52.102;11.584;2023-04-08T09:39:12;38.20;;;21.20;;
38208;SDS011;24016;52.102;11.584;2023-04-08T09:41:37;34.05;;;21.85;;
38208;SDS011;24016;52.102;11.584;2023-04-08T09:44:07;35.97;;;20.85;;
38208;SDS011;24016;52.102;11.584;2023-04-08T09:46:39;37.50;;;22.50;;
38208;SDS011;24016;52.102;11.584;2023-04-08T09:49:18;36.85;;;22.92;;
38208;SDS011;24016;52.102;11.584;2023-04-08T09:57:21;43.08;;;24.13;;
38208;SDS011;24016;52.102;11.584;2023-04-08T10:00:03;45.58;;;26.35;;
38208;SDS011;24016;52.102;11.584;2023-04-08T10:02:35;45.65;;;26.40;;
38208;SDS011;24016;52.102;11.584;2023-04-08T10:05:06;39.22;;;24.80;;
38208;SDS011;24016;52.102;11.584;2023-04-08T10:07:33;40.05;;;24.75;;
38208;SDS011;24016;52.102;11.584;2023-04-08T10:09:59;37.08;;;24.65;;
38208;SDS011;24016;52.102;11.584;2023-04-08T10:12:26;36.38;;;23.55;;
38208;SDS011;24016;52.102;11.584;2023-04-08T10:17:56;37.88;;;23.40;;
38208;SDS011;24016;52.102;11.584;2023-04-08T10:20:46;33.30;;;22.17;;
38208;SDS011;24016;52.102;11.584;2023-04-08T10:23:16;34.35;;;20.95;;
38208;SDS011;24016;52.102;11.584;2023-04-08T10:25:46;37.47;;;22.75;;
38208;SDS011;24016;52.102;11.584;2023-04-08T10:30:44;39.53;;;23.73;;
38208;SDS011;24016;52.102;11.584;2023-04-08T10:33:15;38.92;;;24.08;;
38208;SDS011;24016;52.102;11.584;2023-04-08T10:35:43;38.53;;;22.40;;
38208;SDS011;24016;52.102;11.584;2023-04-08T10:38:12;35.42;;;21.35;;
38208;SDS011;24016;52.102;11.584;2023-04-08T10:40:39;38.95;;;22.40;;
38208;SDS011;24016;52.102;11.584;2023-04-08T10:43:06;34.28;;;20.30;;
38208;SDS011;24016;52.102;11.584;2023-04-08T10:45:32;33.08;;;21.48;;
38208;SDS011;24016;52.102;11.584;2023-04-08T10:48:14;32.60;;;20.67;;
38208;SDS011;24016;52.102;11.584;2023-04-08T10:50:51;29.40;;;19.50;;
38208;SDS011;24016;52.102;11.584;2023-04-08T10:53:22;31.35;;;21.10;;
38208;SDS011;24016;52.102;11.584;2023-04-08T10:55:52;30.33;;;19.55;;
38208;SDS011;24016;52.102;11.584;2023-04-08T10:58:18;29.15;;;18.80;;
38208;SDS011;24016;52.102;11.584;2023-04-08T11:00:44;28.80;;;19.33;;
38208;SDS011;24016;52.102;11.584;2023-04-08T11:03:10;30.77;;;19.33;;
38208;SDS011;24016;52.102;11.584;2023-04-08T11:05:36;27.65;;;18.67;;
38208;SDS011;24016;52.102;11.584;2023-04-08T11:08:03;25.58;;;18.02;;
38208;SDS011;24016;52.102;11.584;2023-04-08T11:10:29;26.80;;;17.95;;
38208;SDS011;24016;52.102;11.584;2023-04-08T11:12:56;23.70;;;17.52;;
38208;SDS011;24016;52.102;11.584;2023-04-08T11:15:25;27.02;;;18.13;;
38208;SDS011;24016;52.102;11.584;2023-04-08T11:17:54;24.95;;;16.92;;
38208;SDS011;24016;52.102;11.584;2023-04-08T11:20:20;24.00;;;17.63;;
38208;SDS011;24016;52.102;11.584;2023-04-08T11:22:46;23.65;;;15.80;;
38208;SDS011;24016;52.102;11.584;2023-04-08T11:25:12;24.20;;;17.02;;
38208;SDS011;24016;52.102;11.584;2023-04-08T11:27:38;21.15;;;15.57;;
38208;SDS011;24016;52.102;11.584;2023-04-08T11:30:05;21.75;;;15.90;;
38208;SDS011;24016;52.102;11.584;2023-04-08T11:32:31;23.27;;;16.35;;
38208;SDS011;24016;52.102;11.584;2023-04-08T11:35:00;24.45;;;16.55;;
38208;SDS011;24016;52.102;11.584;2023-04-08T11:37:39;22.08;;;15.85;;
38208;SDS011;24016;52.102;11.584;2023-04-08T11:40:06;22.88;;;16.25;;
38208;SDS011;24016;52.102;11.584;2023-04-08T11:42:35;24.00;;;17.02;;
38208;SDS011;24016;52.102;11.584;2023-04-08T11:45:01;22.73;;;16.90;;
38208;SDS011;24016;52.102;11.584;2023-04-08T11:47:33;23.25;;;16.27;;
38208;SDS011;24016;52.102;11.584;2023-04-08T11:49:59;21.77;;;15.55;;
38208;SDS011;24016;52.102;11.584;2023-04-08T11:52:44;24.33;;;16.55;;
38208;SDS011;24016;52.102;11.584;2023-04-08T11:55:24;21.13;;;16.42;;
38208;SDS011;24016;52.102;11.584;2023-04-08T11:57:51;25.70;;;18.08;;
38208;SDS011;24016;52.102;11.584;2023-04-08T12:00:18;21.55;;;16.67;;
38208;SDS011;24016;52.102;11.584;2023-04-08T12:02:44;22.10;;;15.73;;
38208;SDS011;24016;52.102;11.584;2023-04-08T12:05:16;20.92;;;15.20;;
38208;SDS011;24016;52.102;11.584;2023-04-08T12:07:42;20.20;;;15.15;;
38208;SDS011;24016;52.102;11.584;2023-04-08T12:10:08;19.98;;;14.98;;
38208;SDS011;24016;52.102;11.584;2023-04-08T12:12:35;22.17;;;16.17;;
38208;SDS011;24016;52.102;11.584;2023-04-08T12:15:03;18.92;;;15.40;;
38208;SDS011;24016;52.102;11.584;2023-04-08T12:17:29;21.35;;;15.65;;
38208;SDS011;24016;52.102;11.584;2023-04-08T12:19:54;19.35;;;15.25;;
38208;SDS011;24016;52.102;11.584;2023-04-08T12:22:20;18.55;;;13.82;;
38208;SDS011;24016;52.102;11.584;2023-04-08T12:24:45;17.00;;;13.38;;
38208;SDS011;24016;52.102;11.584;2023-04-08T12:27:11;17.83;;;13.73;;
38208;SDS011;24016;52.102;11.584;2023-04-08T12:29:36;18.35;;;12.85;;
38208;SDS011;24016;52.102;11.584;2023-04-08T12:32:02;16.48;;;13.00;;
38208;SDS011;24016;52.102;11.584;2023-04-08T12:34:29;19.63;;;15.38;;
38208;SDS011;24016;52.102;11.584;2023-04-08T12:36:55;22.20;;;16.92;;
38208;SDS011;24016;52.102;11.584;2023-04-08T12:39:20;22.38;;;17.33;;
38208;SDS011;24016;52.102;11.584;2023-04-08T12:41:46;20.63;;;16.67;;
38208;SDS011;24016;52.102;11.584;2023-04-08T12:44:12;21.45;;;15.38;;
38208;SDS011;24016;52.102;11.584;2023-04-08T12:46:37;19.67;;;15.30;;
38208;SDS011;24016;52.102;11.584;2023-04-08T12:49:02;22.58;;;16.48;;
38208;SDS011;24016;52.102;11.584;2023-04-08T12:51:28;20.52;;;15.75;;
38208;SDS011;24016;52.102;11.584;2023-04-08T12:53:54;24.20;;;16.67;;
38208;SDS011;24016;52.102;11.584;2023-04-08T12:56:20;20.90;;;15.88;;
38208;SDS011;24016;52.102;11.584;2023-04-08T12:58:46;22.40;;;17.63;;
38208;SDS011;24016;52.102;11.584;2023-04-08T13:01:12;20.58;;;16.65;;
38208;SDS011;24016;52.102;11.584;2023-04-08T13:03:37;19.23;;;16.15;;
38208;SDS011;24016;52.102;11.584;2023-04-08T13:06:03;20.70;;;16.67;;
38208;SDS011;24016;52.102;11.584;2023-04-08T13:08:29;21.50;;;17.33;;
38208;SDS011;24016;52.102;11.584;2023-04-08T13:10:55;19.42;;;15.80;;
38208;SDS011;24016;52.102;11.584;2023-04-08T13:13:20;23.35;;;18.15;;
38208;SDS011;24016;52.102;11.584;2023-04-08T13:15:46;24.52;;;17.58;;
38208;SDS011;24016;52.102;11.584;2023-04-08T13:18:14;22.40;;;17.63;;
38208;SDS011;24016;52.102;11.584;2023-04-08T13:20:40;22.38;;;16.90;;
38208;SDS011;24016;52.102;11.584;2023-04-08T13:23:06;24.77;;;18.20;;
38208;SDS011;24016;52.102;11.584;2023-04-08T13:25:32;23.23;;;17.45;;
38208;SDS011;24016;52.102;11.584;2023-04-08T13:27:58;20.98;;;16.60;;
38208;SDS011;24016;52.102;11.584;2023-04-08T13:30:23;23.38;;;17.92;;
38208;SDS011;24016;52.102;11.584;2023-04-08T13:32:49;23.65;;;18.40;;
38208;SDS011;24016;52.102;11.584;2023-04-08T13:35:14;21.48;;;16.30;;
38208;SDS011;24016;52.102;11.584;2023-04-08T13:37:40;23.00;;;17.73;;
38208;SDS011;24016;52.102;11.584;2023-04-08T13:40:06;24.30;;;18.70;;
38208;SDS011;24016;52.102;11.584;2023-04-08T13:42:32;22.73;;;17.35;;
38208;SDS011;24016;52.102;11.584;2023-04-08T13:44:58;23.15;;;17.60;;
38208;SDS011;24016;52.102;11.584;2023-04-08T13:47:24;21.17;;;16.77;;
38208;SDS011;24016;52.102;11.584;2023-04-08T13:49:50;22.50;;;16.52;;
38208;SDS011;24016;52.102;11.584;2023-04-08T13:52:17;21.45;;;16.98;;
38208;SDS011;24016;52.102;11.584;2023-04-08T13:54:42;22.38;;;15.60;;
38208;SDS011;24016;52.102;11.584;2023-04-08T13:57:08;20.10;;;15.95;;
38208;SDS011;24016;52.102;11.584;2023-04-08T13:59:33;21.23;;;16.23;;
38208;SDS011;24016;52.102;11.584;2023-04-08T14:01:59;22.38;;;17.52;;
38208;SDS011;24016;52.102;11.584;2023-04-08T14:04:24;22.27;;;16.52;;
38208;SDS011;24016;52.102;11.584;2023-04-08T14:06:50;24.30;;;16.95;;
38208;SDS011;24016;52.102;11.584;2023-04-08T14:09:17;21.98;;;15.90;;
38208;SDS011;24016;52.102;11.584;2023-04-08T14:11:43;20.20;;;15.98;;
38208;SDS011;24016;52.102;11.584;2023-04-08T14:14:08;22.25;;;15.98;;
38208;SDS011;24016;52.102;11.584;2023-04-08T14:16:34;19.38;;;15.48;;
38208;SDS011;24016;52.102;11.584;2023-04-08T14:19:00;21.63;;;16.00;;
38208;SDS011;24016;52.102;11.584;2023-04-08T14:21:27;23.08;;;16.15;;